createdAt,value
2022-12-14T00:00:32.199Z,16.55
2022-12-14T00:02:06.838Z,16.65
2022-12-14T00:03:40.187Z,17.13
2022-12-14T00:05:15.927Z,18.08
2022-12-14T00:06:49.313Z,17.52
2022-12-14T00:08:22.742Z,14.57
2022-12-14T00:09:56.099Z,14.88
2022-12-14T00:11:29.984Z,15.00
2022-12-14T00:13:03.241Z,15.90
2022-12-14T00:14:36.716Z,14.70
2022-12-14T00:16:11.988Z,12.90
2022-12-14T00:17:45.391Z,13.50
2022-12-14T00:19:18.531Z,12.88
2022-12-14T00:20:53.407Z,14.57
2022-12-14T00:22:26.570Z,13.77
2022-12-14T00:24:01.081Z,15.70
2022-12-14T00:25:34.236Z,12.80
2022-12-14T00:27:07.613Z,14.43
2022-12-14T00:28:41.414Z,13.70
2022-12-14T00:30:17.616Z,15.23
2022-12-14T00:31:51.290Z,12.38
2022-12-14T00:33:24.645Z,14.48
2022-12-14T00:34:58.002Z,12.98
2022-12-14T00:36:32.646Z,13.25
2022-12-14T00:38:04.864Z,12.52
2022-12-14T00:39:38.343Z,12.02
2022-12-14T00:41:12.557Z,12.57
2022-12-14T00:42:46.020Z,11.90
2022-12-14T00:44:19.198Z,12.93
2022-12-14T00:45:52.733Z,12.38
2022-12-14T00:47:27.509Z,11.88
2022-12-14T00:49:01.168Z,13.13
2022-12-14T00:50:34.563Z,13.52
2022-12-14T00:52:09.320Z,11.45
2022-12-14T00:53:45.027Z,11.32
2022-12-14T00:55:18.778Z,12.13
2022-12-14T00:56:51.966Z,13.25
2022-12-14T00:58:28.087Z,12.60
2022-12-14T01:00:01.382Z,11.75
2022-12-14T01:01:33.782Z,12.80
2022-12-14T01:03:08.024Z,13.93
2022-12-14T01:04:41.542Z,16.27
2022-12-14T01:06:16.249Z,12.68
2022-12-14T01:07:50.958Z,12.90
2022-12-14T01:09:25.905Z,12.20
2022-12-14T01:10:59.277Z,12.00
2022-12-14T01:12:32.498Z,12.07
2022-12-14T01:14:05.817Z,11.68
2022-12-14T01:15:39.104Z,12.80
2022-12-14T01:17:12.524Z,13.02
2022-12-14T01:18:46.020Z,12.43
2022-12-14T01:20:19.482Z,13.00
2022-12-14T01:21:53.553Z,12.65
2022-12-14T01:23:27.663Z,12.85
2022-12-14T01:25:01.128Z,12.45
2022-12-14T01:26:38.857Z,14.25
2022-12-14T01:28:12.118Z,14.43
2022-12-14T01:29:45.625Z,14.55
2022-12-14T01:31:21.624Z,13.70
2022-12-14T01:32:55.138Z,12.32
2022-12-14T01:34:28.389Z,14.48
2022-12-14T01:36:04.947Z,12.93
2022-12-14T01:37:38.084Z,12.57
2022-12-14T01:39:15.162Z,12.00
2022-12-14T01:40:48.293Z,12.25
2022-12-14T01:42:21.647Z,12.95
2022-12-14T01:43:56.140Z,14.13
2022-12-14T01:45:30.119Z,13.55
2022-12-14T01:47:12.134Z,13.18
2022-12-14T01:48:49.969Z,13.90
2022-12-14T01:50:30.404Z,14.07
2022-12-14T01:52:09.163Z,14.18
2022-12-14T01:53:42.673Z,13.02
2022-12-14T01:55:22.342Z,15.43
2022-12-14T01:56:56.634Z,14.43
2022-12-14T01:58:29.999Z,15.05
2022-12-14T02:00:07.619Z,15.65
2022-12-14T02:01:41.845Z,15.10
2022-12-14T02:03:19.202Z,15.02
2022-12-14T02:04:57.430Z,13.00
2022-12-14T02:06:35.276Z,14.18
2022-12-14T02:08:10.180Z,14.30
2022-12-14T02:09:46.139Z,12.88
2022-12-14T02:11:30.536Z,11.63
2022-12-14T02:13:11.001Z,11.02
2022-12-14T02:14:44.598Z,11.90
2022-12-14T02:16:17.811Z,11.88
2022-12-14T02:17:51.270Z,13.23
2022-12-14T02:19:23.778Z,12.40
2022-12-14T02:21:18.294Z,14.38
2022-12-14T02:23:12.164Z,14.10
2022-12-14T02:25:24.076Z,13.70
2022-12-14T02:27:11.267Z,13.85
2022-12-14T02:29:21.157Z,14.00
2022-12-14T02:30:59.216Z,12.75
2022-12-14T02:32:47.577Z,12.00
2022-12-14T02:34:31.922Z,12.85
2022-12-14T02:36:14.628Z,13.88
2022-12-14T02:37:55.422Z,15.70
2022-12-14T02:39:36.148Z,12.18
2022-12-14T02:41:18.174Z,11.73
2022-12-14T02:43:03.230Z,13.18
2022-12-14T02:44:47.834Z,12.98
2022-12-14T02:46:28.067Z,14.70
2022-12-14T02:48:04.658Z,16.10
2022-12-14T02:49:52.856Z,14.15
2022-12-14T02:51:36.979Z,14.13
2022-12-14T02:53:19.526Z,15.95
2022-12-14T02:54:58.521Z,14.15
2022-12-14T02:56:37.847Z,15.48
2022-12-14T02:58:17.361Z,14.85
2022-12-14T02:59:56.356Z,21.70
2022-12-14T03:01:30.366Z,19.40
2022-12-14T03:03:06.342Z,16.60
2022-12-14T03:04:45.957Z,17.02
2022-12-14T03:06:27.141Z,16.27
2022-12-14T03:08:01.979Z,16.48
2022-12-14T03:09:36.035Z,14.70
2022-12-14T03:11:21.548Z,16.13
2022-12-14T03:12:58.281Z,15.68
2022-12-14T03:14:35.676Z,15.98
2022-12-14T03:16:16.354Z,15.18
2022-12-14T03:17:53.332Z,14.38
2022-12-14T03:19:31.048Z,14.20
2022-12-14T03:21:08.580Z,12.10
2022-12-14T03:22:45.967Z,12.93
2022-12-14T03:24:24.661Z,10.90
2022-12-14T03:26:04.553Z,12.82
2022-12-14T03:27:41.107Z,12.18
2022-12-14T03:29:19.809Z,13.52
2022-12-14T03:31:00.339Z,11.57
2022-12-14T03:32:40.010Z,14.95
2022-12-14T03:34:16.904Z,15.25
2022-12-14T03:35:56.389Z,13.23
2022-12-14T03:37:36.078Z,12.18
2022-12-14T03:39:13.974Z,13.50
2022-12-14T03:40:54.495Z,13.90
2022-12-14T03:42:36.901Z,14.82
2022-12-14T03:44:21.232Z,15.30
2022-12-14T03:46:01.481Z,15.48
2022-12-14T03:47:54.913Z,16.75
2022-12-14T03:49:41.260Z,16.15
2022-12-14T03:51:22.564Z,14.40
2022-12-14T03:53:02.500Z,13.55
2022-12-14T03:54:46.657Z,14.75
2022-12-14T03:56:24.547Z,16.38
2022-12-14T03:58:19.802Z,15.63
2022-12-14T03:59:59.815Z,14.38
2022-12-14T04:01:42.160Z,13.90
2022-12-14T04:03:24.131Z,15.52
2022-12-14T04:05:04.831Z,16.77
2022-12-14T04:06:45.381Z,15.30
2022-12-14T04:08:26.231Z,16.10
2022-12-14T04:10:05.058Z,15.70
2022-12-14T04:12:15.378Z,16.88
2022-12-14T04:14:13.981Z,15.63
2022-12-14T04:16:06.148Z,16.13
2022-12-14T04:17:58.934Z,16.83
2022-12-14T04:19:40.575Z,16.80
2022-12-14T04:21:20.475Z,16.30
2022-12-14T04:22:58.764Z,15.40
2022-12-14T04:24:57.334Z,14.75
2022-12-14T04:26:34.943Z,15.75
2022-12-14T04:28:33.337Z,15.82
2022-12-14T04:30:08.965Z,15.27
2022-12-14T04:31:47.178Z,15.02
2022-12-14T04:33:40.088Z,16.05
2022-12-14T04:35:20.445Z,15.77
2022-12-14T04:36:57.095Z,15.00
2022-12-14T04:38:37.058Z,15.48
2022-12-14T04:40:15.516Z,15.07
2022-12-14T04:41:53.683Z,16.65
2022-12-14T04:43:31.301Z,19.35
2022-12-14T04:45:09.551Z,20.23
2022-12-14T04:46:44.126Z,17.88
2022-12-14T04:48:23.325Z,16.65
2022-12-14T04:50:02.782Z,14.80
2022-12-14T04:51:48.284Z,14.15
2022-12-14T04:53:26.386Z,14.05
2022-12-14T04:55:07.453Z,15.95
2022-12-14T04:56:47.426Z,14.93
2022-12-14T04:58:25.823Z,14.30
2022-12-14T05:00:00.776Z,13.35
2022-12-14T05:01:49.131Z,13.35
2022-12-14T05:03:28.837Z,13.98
2022-12-14T05:05:08.617Z,13.88
2022-12-14T05:06:57.679Z,16.85
2022-12-14T05:08:52.703Z,15.95
2022-12-14T05:10:37.135Z,16.38
2022-12-14T05:12:17.717Z,14.82
2022-12-14T05:13:51.627Z,16.35
2022-12-14T05:15:28.723Z,14.82
2022-12-14T05:17:08.757Z,16.45
2022-12-14T05:18:44.301Z,14.85
2022-12-14T05:20:19.555Z,15.60
2022-12-14T05:21:53.179Z,16.50
2022-12-14T05:23:26.829Z,15.90
2022-12-14T05:25:00.507Z,16.48
2022-12-14T05:26:33.666Z,16.52
2022-12-14T05:28:07.056Z,17.27
2022-12-14T05:29:40.428Z,16.48
2022-12-14T05:31:13.142Z,18.58
2022-12-14T05:32:46.386Z,17.15
2022-12-14T05:34:19.814Z,19.13
2022-12-14T05:35:53.218Z,20.85
2022-12-14T05:37:27.874Z,22.25
2022-12-14T05:39:01.092Z,18.23
2022-12-14T05:40:34.307Z,16.80
2022-12-14T05:42:07.748Z,17.25
2022-12-14T05:43:40.261Z,15.50
2022-12-14T05:45:14.209Z,14.98
2022-12-14T05:46:47.404Z,15.93
2022-12-14T05:48:20.727Z,15.48
2022-12-14T05:49:54.070Z,17.83
2022-12-14T05:51:27.254Z,31.15
2022-12-14T05:53:01.726Z,19.90
2022-12-14T05:54:39.438Z,37.75
2022-12-14T05:56:13.480Z,30.83
2022-12-14T05:57:46.741Z,26.52
2022-12-14T05:59:19.913Z,28.25
2022-12-14T06:00:53.501Z,21.85
2022-12-14T06:02:27.301Z,19.30
2022-12-14T06:04:00.684Z,22.60
2022-12-14T06:05:33.946Z,20.13
2022-12-14T06:07:10.141Z,21.95
2022-12-14T06:08:46.887Z,24.30
2022-12-14T06:10:20.036Z,19.92
2022-12-14T06:11:53.197Z,19.48
2022-12-14T06:13:26.960Z,22.13
2022-12-14T06:15:00.562Z,20.00
2022-12-14T06:16:36.464Z,19.55
2022-12-14T06:18:09.700Z,21.77
2022-12-14T06:19:49.539Z,18.25
2022-12-14T06:21:25.741Z,18.02
2022-12-14T06:22:59.636Z,19.05
2022-12-14T06:24:34.548Z,18.45
2022-12-14T06:26:08.311Z,18.52
2022-12-14T06:27:43.000Z,19.73
2022-12-14T06:29:17.929Z,19.50
2022-12-14T06:30:52.205Z,19.98
2022-12-14T06:32:25.908Z,21.95
2022-12-14T06:34:00.534Z,22.83
2022-12-14T06:35:33.717Z,24.02
2022-12-14T06:37:07.867Z,23.55
2022-12-14T06:38:41.577Z,25.02
2022-12-14T06:40:16.577Z,23.75
2022-12-14T06:41:52.604Z,24.08
2022-12-14T06:43:27.063Z,26.65
2022-12-14T06:45:00.654Z,23.55
2022-12-14T06:46:34.534Z,20.73
2022-12-14T06:48:08.188Z,19.70
2022-12-14T06:49:41.574Z,21.42
2022-12-14T06:51:15.685Z,25.08
2022-12-14T06:52:50.515Z,22.30
2022-12-14T06:54:25.752Z,24.30
2022-12-14T06:56:09.859Z,22.52
2022-12-14T06:57:43.282Z,22.88
2022-12-14T06:59:18.324Z,20.70
2022-12-14T07:00:51.459Z,18.85
2022-12-14T07:02:24.863Z,19.52
2022-12-14T07:03:59.751Z,20.98
2022-12-14T07:05:33.443Z,44.90
2022-12-14T07:07:07.090Z,23.42
2022-12-14T07:08:42.099Z,19.73
2022-12-14T07:10:16.063Z,25.35
2022-12-14T07:11:53.516Z,21.77
2022-12-14T07:13:27.355Z,24.42
2022-12-14T07:15:01.039Z,19.20
2022-12-14T07:16:37.395Z,18.73
2022-12-14T07:18:12.505Z,17.95
2022-12-14T07:19:45.683Z,23.98
2022-12-14T07:21:23.953Z,21.50
2022-12-14T07:22:57.201Z,21.08
2022-12-14T07:24:30.739Z,22.02
2022-12-14T07:26:04.968Z,23.30
2022-12-14T07:27:40.505Z,24.27
2022-12-14T07:29:15.558Z,24.75
2022-12-14T07:30:49.227Z,22.65
2022-12-14T07:32:22.716Z,22.60
2022-12-14T07:33:58.396Z,19.33
2022-12-14T07:35:32.099Z,19.80
2022-12-14T07:37:06.186Z,18.65
2022-12-14T07:38:43.425Z,17.00
2022-12-14T07:40:17.794Z,18.65
2022-12-14T07:41:52.288Z,20.30
2022-12-14T07:43:31.266Z,19.77
2022-12-14T07:45:05.999Z,19.08
2022-12-14T07:46:39.348Z,19.67
2022-12-14T07:48:12.876Z,19.80
2022-12-14T07:49:46.527Z,19.10
2022-12-14T07:51:23.255Z,19.77
2022-12-14T07:52:56.591Z,23.15
2022-12-14T07:54:30.391Z,23.80
2022-12-14T07:56:05.721Z,23.17
2022-12-14T07:57:39.443Z,26.92
2022-12-14T07:59:16.689Z,27.58
2022-12-14T08:00:50.041Z,31.38
2022-12-14T08:02:23.608Z,29.02
2022-12-14T08:03:59.248Z,28.08
2022-12-14T08:05:32.976Z,29.30
2022-12-14T08:07:06.187Z,29.35
2022-12-14T08:08:40.222Z,26.92
2022-12-14T08:10:13.450Z,31.00
2022-12-14T08:11:47.252Z,30.20
2022-12-14T08:13:20.958Z,24.42
2022-12-14T08:14:56.110Z,26.08
2022-12-14T08:16:31.227Z,26.92
2022-12-14T08:18:04.926Z,30.00
2022-12-14T08:19:38.035Z,28.75
2022-12-14T08:21:14.203Z,29.10
2022-12-14T08:22:47.429Z,27.88
2022-12-14T08:24:21.932Z,29.95
2022-12-14T08:25:55.645Z,29.98
2022-12-14T08:27:31.086Z,25.13
2022-12-14T08:29:04.720Z,25.00
2022-12-14T08:30:41.134Z,25.38
2022-12-14T08:32:14.285Z,24.92
2022-12-14T08:33:48.393Z,27.63
2022-12-14T08:35:21.979Z,29.73
2022-12-14T08:36:56.269Z,29.40
2022-12-14T08:38:30.085Z,27.92
2022-12-14T08:40:04.404Z,31.10
2022-12-14T08:41:38.275Z,30.65
2022-12-14T08:43:12.086Z,30.10
2022-12-14T08:44:45.304Z,29.40
2022-12-14T08:46:25.299Z,30.85
2022-12-14T08:47:59.071Z,30.17
2022-12-14T08:49:33.312Z,31.75
2022-12-14T08:51:08.396Z,28.63
2022-12-14T08:52:41.833Z,32.55
2022-12-14T08:54:14.998Z,56.20
2022-12-14T08:55:48.652Z,33.03
2022-12-14T08:57:24.785Z,32.50
2022-12-14T08:58:58.655Z,32.92
2022-12-14T09:00:32.136Z,30.63
2022-12-14T09:02:07.790Z,30.25
2022-12-14T09:03:41.573Z,31.98
2022-12-14T09:05:15.236Z,31.88
2022-12-14T09:06:49.034Z,31.02
2022-12-14T09:08:22.415Z,28.58
2022-12-14T09:09:56.000Z,28.73
2022-12-14T09:11:29.552Z,30.52
2022-12-14T09:13:02.814Z,27.10
2022-12-14T09:14:36.945Z,27.38
2022-12-14T09:16:14.206Z,38.85
2022-12-14T09:17:51.365Z,26.92
2022-12-14T09:19:24.605Z,24.73
2022-12-14T09:20:58.612Z,27.73
2022-12-14T09:22:31.831Z,26.25
2022-12-14T09:24:06.829Z,29.70
2022-12-14T09:25:40.105Z,26.95
2022-12-14T09:27:13.495Z,26.75
2022-12-14T09:28:48.916Z,25.42
2022-12-14T09:30:26.654Z,24.35
2022-12-14T09:32:20.854Z,32.20
2022-12-14T09:33:56.839Z,29.05
2022-12-14T09:35:30.701Z,25.45
2022-12-14T09:37:05.339Z,26.75
2022-12-14T09:38:44.289Z,23.88
2022-12-14T09:40:27.666Z,22.58
2022-12-14T09:42:17.908Z,18.50
2022-12-14T09:43:56.174Z,25.77
2022-12-14T09:45:34.094Z,21.55
2022-12-14T09:47:14.377Z,22.33
2022-12-14T09:48:49.191Z,23.67
2022-12-14T09:50:25.759Z,25.67
2022-12-14T09:52:02.854Z,20.95
2022-12-14T09:53:38.289Z,21.52
2022-12-14T09:55:21.214Z,20.75
2022-12-14T09:56:56.299Z,21.15
2022-12-14T09:58:32.628Z,18.60
2022-12-14T10:00:13.236Z,17.45
2022-12-14T10:02:29.286Z,21.65
2022-12-14T10:04:01.647Z,18.10
2022-12-14T10:06:03.415Z,16.13
2022-12-14T10:07:42.678Z,15.15
2022-12-14T10:09:24.538Z,13.88
2022-12-14T10:11:07.410Z,16.25
2022-12-14T10:12:53.984Z,13.82
2022-12-14T10:14:44.332Z,15.18
2022-12-14T10:16:26.514Z,13.43
2022-12-14T10:18:49.843Z,15.60
2022-12-14T10:20:23.600Z,12.50
2022-12-14T10:22:02.143Z,12.60
2022-12-14T10:23:36.778Z,15.27
2022-12-14T10:25:15.198Z,18.00
2022-12-14T10:26:52.657Z,18.80
2022-12-14T10:28:39.424Z,19.95
2022-12-14T10:30:19.758Z,20.10
2022-12-14T10:32:01.299Z,19.17
2022-12-14T10:33:35.117Z,16.98
2022-12-14T10:35:16.090Z,15.55
2022-12-14T10:36:55.935Z,16.95
2022-12-14T10:38:39.308Z,14.02
2022-12-14T10:40:29.197Z,15.15
2022-12-14T10:42:16.873Z,19.80
2022-12-14T10:43:58.374Z,20.70
2022-12-14T10:45:41.098Z,20.23
2022-12-14T10:47:21.240Z,17.00
2022-12-14T10:49:01.361Z,18.58
2022-12-14T10:50:44.258Z,16.23
2022-12-14T10:52:27.384Z,12.80
2022-12-14T10:54:17.053Z,14.77
2022-12-14T10:55:56.356Z,18.48
2022-12-14T10:57:30.945Z,18.17
2022-12-14T10:59:35.108Z,14.02
2022-12-14T11:01:15.820Z,13.38
2022-12-14T11:02:51.534Z,13.10
2022-12-14T11:04:31.460Z,14.20
2022-12-14T11:06:12.083Z,13.05
2022-12-14T11:07:46.475Z,13.05
2022-12-14T11:09:26.147Z,13.63
2022-12-14T11:11:12.776Z,13.95
2022-12-14T11:13:00.586Z,14.23
2022-12-14T11:14:34.077Z,43.08
2022-12-14T11:16:33.724Z,17.30
2022-12-14T11:18:31.144Z,17.98
2022-12-14T11:20:17.711Z,19.05
2022-12-14T11:21:57.243Z,20.52
2022-12-14T11:23:31.937Z,19.67
2022-12-14T11:25:07.090Z,16.48
2022-12-14T11:26:43.826Z,19.30
2022-12-14T11:28:22.313Z,18.42
2022-12-14T11:29:56.207Z,18.70
2022-12-14T11:31:35.732Z,52.22
2022-12-14T11:33:17.893Z,66.38
2022-12-14T11:34:59.778Z,22.55
2022-12-14T11:36:55.790Z,24.60
2022-12-14T11:38:31.686Z,25.45
2022-12-14T11:40:08.499Z,20.58
2022-12-14T11:41:44.245Z,25.38
2022-12-14T11:43:26.688Z,26.35
2022-12-14T11:45:21.568Z,26.73
2022-12-14T11:47:02.029Z,28.83
2022-12-14T11:48:38.558Z,27.27
2022-12-14T11:50:25.883Z,24.77
2022-12-14T11:52:02.711Z,25.30
2022-12-14T11:53:36.385Z,23.70
2022-12-14T11:55:16.220Z,24.65
2022-12-14T11:56:54.360Z,25.13
2022-12-14T11:58:32.324Z,25.67
2022-12-14T12:00:09.162Z,20.60
2022-12-14T12:01:42.790Z,23.23
2022-12-14T12:03:20.916Z,21.77
2022-12-14T12:04:58.635Z,27.05
2022-12-14T12:06:33.302Z,23.10
2022-12-14T12:08:07.749Z,27.38
2022-12-14T12:09:43.318Z,26.98
2022-12-14T12:11:21.139Z,23.55
2022-12-14T12:12:56.833Z,22.63
2022-12-14T12:14:34.643Z,19.80
2022-12-14T12:16:15.738Z,19.63
2022-12-14T12:17:55.649Z,21.30
2022-12-14T12:19:34.411Z,20.58
2022-12-14T12:21:14.498Z,22.58
2022-12-14T12:22:53.551Z,25.27
2022-12-14T12:24:30.285Z,23.05
2022-12-14T12:26:12.574Z,25.15
2022-12-14T12:27:53.411Z,24.80
2022-12-14T12:29:32.188Z,24.38
2022-12-14T12:31:13.121Z,25.92
2022-12-14T12:32:50.545Z,27.48
2022-12-14T12:34:30.034Z,23.58
2022-12-14T12:36:06.422Z,23.80
2022-12-14T12:37:48.755Z,26.23
2022-12-14T12:39:26.590Z,26.40
2022-12-14T12:41:07.757Z,24.00
2022-12-14T12:42:46.569Z,25.42
2022-12-14T12:44:37.554Z,25.42
2022-12-14T12:46:17.017Z,23.60
2022-12-14T12:47:55.595Z,25.45
2022-12-14T12:49:29.132Z,31.55
2022-12-14T12:51:05.566Z,30.00
2022-12-14T12:53:02.394Z,26.60
2022-12-14T12:54:41.231Z,26.00
2022-12-14T12:56:18.380Z,28.58
2022-12-14T12:57:55.853Z,26.15
2022-12-14T12:59:39.904Z,24.20
2022-12-14T13:01:24.255Z,29.00
2022-12-14T13:03:02.436Z,32.17
2022-12-14T13:04:49.174Z,27.75
2022-12-14T13:06:31.567Z,37.17
2022-12-14T13:08:09.737Z,38.42
2022-12-14T13:09:49.344Z,35.90
2022-12-14T13:11:27.706Z,29.50
2022-12-14T13:13:10.004Z,24.55
2022-12-14T13:14:49.906Z,23.25
2022-12-14T13:16:30.141Z,41.10
2022-12-14T13:18:07.477Z,55.42
2022-12-14T13:19:52.077Z,32.10
2022-12-14T13:21:35.046Z,26.60
2022-12-14T13:23:36.543Z,27.45
2022-12-14T13:25:13.713Z,26.23
2022-12-14T13:27:19.432Z,28.70
2022-12-14T13:28:59.234Z,32.28
2022-12-14T13:30:47.724Z,32.97
2022-12-14T13:32:39.054Z,28.90
2022-12-14T13:34:34.287Z,27.50
2022-12-14T13:36:40.007Z,28.67
2022-12-14T13:38:33.996Z,21.23
2022-12-14T13:40:41.652Z,22.25
2022-12-14T13:42:24.503Z,22.92
2022-12-14T13:44:26.568Z,26.30
2022-12-14T13:46:17.126Z,48.10
2022-12-14T13:47:54.581Z,18.80
2022-12-14T13:49:29.444Z,40.70
2022-12-14T13:51:05.617Z,20.45
2022-12-14T13:52:42.460Z,19.83
2022-12-14T13:54:22.977Z,20.52
2022-12-14T13:55:58.039Z,18.40
2022-12-14T13:57:32.366Z,19.58
2022-12-14T13:59:18.278Z,21.48
2022-12-14T14:00:58.025Z,21.58
2022-12-14T14:02:43.311Z,27.20
2022-12-14T14:04:22.057Z,28.30
2022-12-14T14:05:59.584Z,28.70
2022-12-14T14:07:52.402Z,23.27
2022-12-14T14:10:00.597Z,39.78
2022-12-14T14:11:55.388Z,28.70
2022-12-14T14:14:03.066Z,40.80
2022-12-14T14:16:11.330Z,37.60
2022-12-14T14:17:44.403Z,30.50
2022-12-14T14:19:24.061Z,40.70
2022-12-14T14:21:31.903Z,37.10
2022-12-14T14:23:34.234Z,39.50
2022-12-14T14:25:41.729Z,31.85
2022-12-14T14:27:21.236Z,35.55
2022-12-14T14:29:20.542Z,42.20
2022-12-14T14:30:56.992Z,49.10
2022-12-14T14:32:40.387Z,45.35
2022-12-14T14:34:22.156Z,35.38
2022-12-14T14:36:09.215Z,33.33
2022-12-14T14:37:42.814Z,34.30
2022-12-14T14:41:31.917Z,32.13
2022-12-14T14:43:08.695Z,36.88
2022-12-14T14:44:50.715Z,44.13
2022-12-14T14:46:35.726Z,50.08
2022-12-14T14:48:23.796Z,38.50
2022-12-14T14:50:01.775Z,40.72
2022-12-14T14:51:37.290Z,57.50
2022-12-14T14:53:28.346Z,58.53
2022-12-14T14:55:55.178Z,43.47
2022-12-14T14:57:55.861Z,36.50
2022-12-14T14:59:51.077Z,37.72
2022-12-14T15:01:27.659Z,33.83
2022-12-14T15:03:01.902Z,29.95
2022-12-14T15:04:47.091Z,29.10
2022-12-14T15:06:24.914Z,39.25
2022-12-14T15:08:01.475Z,36.35
2022-12-14T15:09:39.217Z,35.03
2022-12-14T15:11:17.703Z,50.58
2022-12-14T15:12:54.591Z,43.45
2022-12-14T15:14:46.694Z,40.78
2022-12-14T15:16:31.562Z,39.53
2022-12-14T15:18:18.624Z,40.10
2022-12-14T15:19:54.083Z,33.10
2022-12-14T15:21:29.209Z,41.15
2022-12-14T15:23:03.194Z,48.20
2022-12-14T15:24:40.336Z,48.40
2022-12-14T15:26:17.594Z,43.03
2022-12-14T15:27:52.025Z,45.03
2022-12-14T15:29:28.938Z,44.05
2022-12-14T15:31:03.213Z,35.72
2022-12-14T15:32:42.970Z,41.78
2022-12-14T15:34:22.354Z,44.65
2022-12-14T15:36:02.902Z,52.13
2022-12-14T15:37:43.037Z,50.95
2022-12-14T15:39:32.697Z,46.92
2022-12-14T15:41:08.220Z,46.03
2022-12-14T15:42:48.057Z,48.28
2022-12-14T15:44:23.166Z,37.47
2022-12-14T15:46:04.431Z,42.70
2022-12-14T15:47:38.742Z,54.38
2022-12-14T15:49:23.361Z,37.47
2022-12-14T15:50:59.217Z,52.55
2022-12-14T15:52:32.717Z,33.42
2022-12-14T15:54:13.585Z,37.60
2022-12-14T15:55:59.839Z,41.35
2022-12-14T15:57:34.410Z,66.07
2022-12-14T15:59:16.922Z,44.13
2022-12-14T16:00:53.820Z,44.10
2022-12-14T16:02:32.141Z,48.95
2022-12-14T16:04:07.913Z,67.68
2022-12-14T16:05:41.469Z,63.80
2022-12-14T16:07:18.881Z,108.03
2022-12-14T16:08:56.219Z,81.22
2022-12-14T16:10:33.752Z,76.65
2022-12-14T16:12:10.815Z,90.53
2022-12-14T16:13:45.451Z,92.05
2022-12-14T16:15:21.319Z,92.00
2022-12-14T16:16:55.539Z,79.05
2022-12-14T16:18:28.816Z,55.97
2022-12-14T16:20:04.985Z,50.95
2022-12-14T16:21:38.216Z,59.35
2022-12-14T16:23:28.048Z,54.55
2022-12-14T16:25:16.800Z,49.67
2022-12-14T16:26:59.108Z,49.33
2022-12-14T16:28:34.445Z,48.10
2022-12-14T16:30:23.436Z,37.90
2022-12-14T16:32:05.836Z,39.42
2022-12-14T16:33:41.719Z,42.28
2022-12-14T16:35:23.070Z,46.70
2022-12-14T16:37:31.056Z,35.95
2022-12-14T16:39:03.996Z,36.45
2022-12-14T16:40:39.292Z,35.30
2022-12-14T16:42:20.799Z,36.97
2022-12-14T16:43:57.217Z,37.38
2022-12-14T16:46:10.701Z,39.60
2022-12-14T16:48:04.579Z,39.33
2022-12-14T16:49:40.146Z,36.42
2022-12-14T16:52:05.557Z,46.00
2022-12-14T16:53:30.884Z,39.33
2022-12-14T16:55:12.065Z,37.75
2022-12-14T16:56:46.291Z,34.78
2022-12-14T16:58:21.498Z,26.33
2022-12-14T17:00:01.903Z,31.15
2022-12-14T17:01:42.817Z,36.35
2022-12-14T17:03:23.469Z,40.10
2022-12-14T17:04:58.589Z,30.02
2022-12-14T17:06:39.353Z,33.10
2022-12-14T17:08:13.125Z,28.85
2022-12-14T17:09:46.567Z,25.20
2022-12-14T17:11:21.575Z,25.73
2022-12-14T17:12:59.099Z,27.35
2022-12-14T17:14:34.021Z,31.75
2022-12-14T17:16:09.158Z,29.85
2022-12-14T17:17:43.041Z,31.10
2022-12-14T17:19:22.518Z,36.58
2022-12-14T17:20:55.815Z,55.40
2022-12-14T17:22:31.358Z,69.43
2022-12-14T17:24:04.994Z,59.22
2022-12-14T17:25:42.058Z,54.85
2022-12-14T17:27:23.068Z,53.28
2022-12-14T17:28:56.568Z,53.55
2022-12-14T17:30:34.352Z,61.90
2022-12-14T17:32:08.152Z,65.25
2022-12-14T17:33:41.377Z,48.80
2022-12-14T17:35:18.087Z,56.38
2022-12-14T17:36:51.910Z,49.63
2022-12-14T17:38:25.850Z,43.25
2022-12-14T17:40:00.032Z,43.50
2022-12-14T17:41:33.655Z,42.08
2022-12-14T17:43:07.337Z,45.53
2022-12-14T17:44:42.095Z,53.33
2022-12-14T17:46:16.758Z,56.97
2022-12-14T17:47:50.457Z,52.33
2022-12-14T17:49:35.029Z,48.67
2022-12-14T17:51:08.314Z,49.60
2022-12-14T17:52:41.553Z,54.60
2022-12-14T17:54:17.614Z,54.88
2022-12-14T17:55:50.812Z,46.75
2022-12-14T17:57:26.071Z,45.70
2022-12-14T17:58:59.215Z,47.22
2022-12-14T18:00:50.695Z,44.53
2022-12-14T18:02:33.390Z,37.90
2022-12-14T18:04:08.188Z,56.90
2022-12-14T18:05:48.375Z,50.25
2022-12-14T18:07:22.140Z,47.88
2022-12-14T18:08:55.295Z,50.50
2022-12-14T18:10:28.959Z,48.70
2022-12-14T18:12:22.567Z,39.72
2022-12-14T18:13:56.076Z,39.28
2022-12-14T18:15:31.667Z,38.92
2022-12-14T18:17:09.798Z,42.83
2022-12-14T18:18:46.407Z,39.95
2022-12-14T18:20:23.987Z,42.25
2022-12-14T18:21:58.099Z,41.53
2022-12-14T18:23:32.454Z,40.00
2022-12-14T18:25:22.729Z,29.92
2022-12-14T18:26:56.526Z,32.50
2022-12-14T18:28:29.922Z,32.92
2022-12-14T18:30:04.197Z,31.95
2022-12-14T18:31:38.879Z,38.83
2022-12-14T18:33:15.644Z,38.30
2022-12-14T18:34:50.246Z,39.22
2022-12-14T18:36:24.033Z,37.78
2022-12-14T18:37:57.301Z,38.65
2022-12-14T18:39:30.516Z,38.15
2022-12-14T18:41:03.747Z,36.55
2022-12-14T18:42:36.925Z,37.20
2022-12-14T18:44:11.904Z,38.45
2022-12-14T18:45:45.140Z,37.10
2022-12-14T18:47:40.763Z,36.72
2022-12-14T18:49:11.436Z,40.42
2022-12-14T18:50:46.091Z,43.83
2022-12-14T18:52:22.945Z,35.97
2022-12-14T18:53:58.116Z,35.55
2022-12-14T18:55:33.861Z,33.25
2022-12-14T18:57:07.126Z,31.98
2022-12-14T18:58:42.154Z,35.15
2022-12-14T19:00:17.594Z,35.15
2022-12-14T19:01:51.166Z,36.25
2022-12-14T19:03:25.845Z,34.83
2022-12-14T19:04:59.141Z,33.17
2022-12-14T19:06:44.077Z,34.80
2022-12-14T19:08:19.055Z,36.25
2022-12-14T19:09:52.316Z,28.20
2022-12-14T19:11:31.758Z,32.97
2022-12-14T19:13:06.764Z,30.23
2022-12-14T19:14:43.334Z,34.75
2022-12-14T19:16:16.672Z,36.90
2022-12-14T19:17:49.989Z,30.50
2022-12-14T19:19:25.724Z,24.58
2022-12-14T19:21:00.895Z,26.63
2022-12-14T19:22:35.547Z,28.10
2022-12-14T19:24:09.346Z,29.33
2022-12-14T19:25:43.053Z,26.80
2022-12-14T19:27:25.921Z,28.85
2022-12-14T19:29:09.366Z,27.35
2022-12-14T19:30:45.300Z,23.90
2022-12-14T19:32:18.420Z,25.17
2022-12-14T19:33:51.579Z,24.27
2022-12-14T19:35:25.662Z,25.02
2022-12-14T19:36:58.853Z,21.75
2022-12-14T19:38:35.298Z,22.77
2022-12-14T19:40:13.546Z,22.13
2022-12-14T19:41:47.994Z,22.88
2022-12-14T19:43:21.233Z,23.23
2022-12-14T19:44:54.472Z,27.27
2022-12-14T19:46:27.725Z,24.13
2022-12-14T19:48:00.896Z,26.23
2022-12-14T19:49:34.094Z,27.98
2022-12-14T19:51:08.678Z,28.00
2022-12-14T19:52:42.060Z,27.05
2022-12-14T19:54:16.696Z,28.48
2022-12-14T19:55:52.635Z,27.00
2022-12-14T19:57:25.901Z,27.13
2022-12-14T19:59:00.867Z,37.83
2022-12-14T20:00:34.092Z,49.55
2022-12-14T20:02:07.381Z,50.30
2022-12-14T20:03:40.948Z,37.22
2022-12-14T20:05:14.551Z,35.90
2022-12-14T20:06:47.759Z,35.95
2022-12-14T20:08:21.028Z,33.97
2022-12-14T20:09:55.593Z,25.75
2022-12-14T20:11:29.147Z,27.45
2022-12-14T20:13:02.503Z,30.67
2022-12-14T20:14:39.801Z,31.27
2022-12-14T20:16:17.311Z,31.73
2022-12-14T20:17:50.539Z,34.28
2022-12-14T20:19:24.133Z,30.33
2022-12-14T20:21:03.209Z,25.33
2022-12-14T20:22:36.789Z,21.50
2022-12-14T20:24:11.448Z,26.38
2022-12-14T20:25:46.073Z,29.77
2022-12-14T20:27:19.919Z,27.88
2022-12-14T20:28:54.884Z,23.17
2022-12-14T20:30:28.036Z,24.65
2022-12-14T20:32:01.231Z,25.25
2022-12-14T20:33:34.977Z,26.48
2022-12-14T20:35:11.005Z,22.83
2022-12-14T20:36:44.116Z,25.85
2022-12-14T20:38:17.377Z,26.05
2022-12-14T20:39:50.497Z,22.15
2022-12-14T20:41:26.702Z,25.00
2022-12-14T20:42:59.879Z,22.60
2022-12-14T20:44:33.155Z,25.42
2022-12-14T20:46:06.705Z,25.52
2022-12-14T20:47:40.739Z,22.40
2022-12-14T20:49:15.682Z,23.20
2022-12-14T20:50:50.524Z,22.38
2022-12-14T20:52:25.599Z,21.02
2022-12-14T20:53:58.835Z,23.27
2022-12-14T20:55:32.239Z,21.70
2022-12-14T20:57:06.871Z,24.83
2022-12-14T20:58:40.047Z,25.88
2022-12-14T21:00:14.504Z,27.48
2022-12-14T21:01:53.449Z,25.65
2022-12-14T21:03:29.372Z,24.23
2022-12-14T21:05:02.833Z,30.73
2022-12-14T21:06:39.271Z,29.88
2022-12-14T21:08:15.517Z,29.02
2022-12-14T21:09:48.757Z,28.25